Time;durP1;ratioP1;P1;durP2;ratioP2;P2;SDS_P1;SDS_P2;PMS_P1;PMS_P2;Temp;Humidity;BMP_temperature;BMP_pressure;BME280_temperature;BME280_humidity;BME280_pressure;Samples;Min_cycle;Max_cycle;Signal;HPM_P1;HPM_P2
2022/08/01 00:00:10;;;;;;;4.18;2.80;;;;;;;15.84;76.10;100067.06;5030047;28;20029;-72
2022/08/01 00:02:40;;;;;;;5.25;3.13;;;;;;;15.80;76.03;100058.72;5013189;28;20540;-74
2022/08/01 00:05:07;;;;;;;4.68;3.42;;;;;;;15.76;76.15;100060.31;5029540;28;20545;-73
2022/08/01 00:07:36;;;;;;;4.85;3.20;;;;;;;15.76;76.26;100060.31;5029641;28;20033;-73
2022/08/01 00:10:03;;;;;;;4.00;3.00;;;;;;;15.75;76.47;100061.63;5029620;28;20021;-73
2022/08/01 00:12:29;;;;;;;4.13;3.25;;;;;;;15.72;76.45;100063.47;5030470;28;20026;-72
2022/08/01 00:14:54;;;;;;;3.40;2.92;;;;;;;15.71;76.65;100061.94;5030959;28;20049;-72
2022/08/01 00:17:19;;;;;;;3.22;2.83;;;;;;;15.70;76.17;100069.00;5031717;28;20018;-72
2022/08/01 00:19:45;;;;;;;3.28;2.97;;;;;;;15.69;76.78;100067.44;5032895;28;20335;-71
2022/08/01 00:22:10;;;;;;;5.10;2.92;;;;;;;15.66;76.78;100062.75;5033291;28;20026;-71
2022/08/01 00:24:36;;;;;;;3.53;2.83;;;;;;;15.63;76.84;100058.84;5032806;28;20026;-73
2022/08/01 00:27:01;;;;;;;3.25;2.70;;;;;;;15.64;77.00;100059.63;5033094;28;20029;-72
2022/08/01 00:29:26;;;;;;;3.58;3.03;;;;;;;15.64;76.88;100062.50;5031579;28;20455;-71
2022/08/01 00:31:52;;;;;;;3.22;2.92;;;;;;;15.62;77.31;100068.00;5032089;28;20025;-74
2022/08/01 00:34:17;;;;;;;3.40;2.97;;;;;;;15.65;77.22;100061.19;5031770;28;20025;-73
2022/08/01 00:36:43;;;;;;;3.55;2.70;;;;;;;15.61;77.21;100058.56;5031915;28;20026;-73
2022/08/01 00:39:08;;;;;;;3.30;2.78;;;;;;;15.67;77.09;100061.41;5015218;28;20490;-72
2022/08/01 00:41:33;;;;;;;4.63;2.90;;;;;;;15.64;76.97;100059.63;5033153;28;20025;-71
2022/08/01 00:44:03;;;;;;;3.63;3.08;;;;;;;15.65;76.99;100067.72;5033267;28;20018;-72
2022/08/01 00:46:28;;;;;;;3.03;2.83;;;;;;;15.66;77.20;100060.63;5032088;28;20037;-73
2022/08/01 00:48:54;;;;;;;3.38;2.95;;;;;;;15.65;77.29;100049.66;5015148;28;20385;-73
2022/08/01 00:51:20;;;;;;;3.95;3.28;;;;;;;15.67;77.26;100047.00;5031682;28;20025;-72
2022/08/01 00:53:45;;;;;;;3.35;2.72;;;;;;;15.67;77.14;100041.25;5015065;28;20378;-72
2022/08/01 00:56:11;;;;;;;3.28;2.97;;;;;;;15.65;77.54;100041.81;5031662;28;20032;-73
2022/08/01 00:58:36;;;;;;;3.72;3.22;;;;;;;15.61;77.98;100047.03;5034586;28;20021;-72
2022/08/01 01:01:02;;;;;;;4.03;3.60;;;;;;;15.54;78.14;100033.22;5018398;28;20463;-73
2022/08/01 01:03:28;;;;;;;5.72;3.80;;;;;;;15.48;78.51;100041.09;5035944;28;20383;-73
2022/08/01 01:06:12;;;;;;;4.57;4.03;;;;;;;15.46;78.57;100043.75;5034850;28;20033;-72
2022/08/01 01:08:45;;;;;;;4.00;3.45;;;;;;;15.42;78.67;100036.69;5036121;28;20033;-72
2022/08/01 01:11:17;;;;;;;4.57;3.13;;;;;;;15.34;78.88;100042.25;5034826;28;20021;-72
2022/08/01 01:13:47;;;;;;;4.18;3.53;;;;;;;15.31;79.28;100051.16;5035032;28;20021;-72
2022/08/01 01:16:14;;;;;;;7.30;4.05;;;;;;;15.26;79.28;100050.66;5035805;28;20091;-73
2022/08/01 01:18:47;;;;;;;5.65;3.65;;;;;;;15.21;79.75;100042.06;5035975;28;20041;-73
2022/08/01 01:21:12;;;;;;;4.40;3.72;;;;;;;15.17;79.81;100038.66;5035819;28;20099;-72
2022/08/01 01:23:44;;;;;;;4.32;3.58;;;;;;;15.13;80.28;100049.69;5035693;28;20124;-73
2022/08/01 01:26:45;;;;;;;4.85;3.90;;;;;;;15.09;80.22;100047.09;5033300;28;20374;-73
2022/08/01 01:29:21;;;;;;;4.05;3.65;;;;;;;15.05;80.17;100040.84;5032413;28;20013;-73
2022/08/01 01:31:52;;;;;;;6.53;3.47;;;;;;;15.08;80.28;100041.84;5032234;28;20136;-73
2022/08/01 01:34:20;;;;;;;4.15;3.75;;;;;;;15.10;80.15;100042.13;5032227;28;20024;-73
2022/08/01 01:36:47;;;;;;;4.78;3.67;;;;;;;15.12;80.06;100034.50;5032093;28;20080;-73
2022/08/01 01:39:14;;;;;;;4.30;3.30;;;;;;;15.13;80.36;100036.06;5015620;28;20049;-73
2022/08/01 01:41:40;;;;;;;4.78;3.67;;;;;;;15.09;80.21;100024.06;5032042;28;20406;-75
2022/08/01 01:44:05;;;;;;;5.75;3.58;;;;;;;15.16;80.14;100031.34;5017043;28;20387;-72
2022/08/01 01:46:31;;;;;;;8.27;4.00;;;;;;;15.17;79.95;100027.16;5032366;28;20462;-72
2022/08/01 01:48:57;;;;;;;5.88;3.75;;;;;;;15.16;80.21;100029.28;4998995;28;20025;-74
2022/08/01 01:51:24;;;;;;;3.88;3.35;;;;;;;15.16;80.35;100023.50;5031823;28;20104;-73
2022/08/01 01:53:52;;;;;;;5.82;3.78;;;;;;;15.20;80.49;100024.00;5031906;28;20087;-74
2022/08/01 01:56:18;;;;;;;4.70;4.13;;;;;;;15.20;80.28;100026.09;5015212;28;20083;-74
2022/08/01 01:58:45;;;;;;;5.28;4.00;;;;;;;15.26;80.28;100033.41;5015126;28;20120;-73
2022/08/01 02:01:11;;;;;;;4.50;3.75;;;;;;;15.31;80.25;100026.03;5034519;28;20025;-73
2022/08/01 02:03:37;;;;;;;4.28;3.88;;;;;;;15.34;80.12;100027.06;5033846;28;20091;-73
2022/08/01 02:06:03;;;;;;;4.13;3.67;;;;;;;15.36;80.07;100024.44;5033540;28;20029;-73
2022/08/01 02:08:29;;;;;;;5.05;3.72;;;;;;;15.38;79.91;100019.69;5033208;28;20030;-73
2022/08/01 02:13:40;;;;;;;6.22;3.50;;;;;;;15.41;79.77;100026.50;5033760;28;20029;-73
2022/08/01 02:16:05;;;;;;;4.30;3.28;;;;;;;15.44;79.77;100025.41;5033552;28;20391;-72
2022/08/01 02:18:32;;;;;;;3.75;3.38;;;;;;;15.51;79.82;100031.41;5016850;28;20021;-72
2022/08/01 02:20:58;;;;;;;5.35;3.35;;;;;;;15.56;79.62;100026.91;5033703;28;20025;-72
2022/08/01 02:23:32;;;;;;;5.13;4.22;;;;;;;15.55;79.48;100028.22;5033366;28;20532;-73
2022/08/01 02:25:58;;;;;;;3.90;3.50;;;;;;;15.58;79.58;100030.03;5016912;28;20585;-72
2022/08/01 02:28:31;;;;;;;5.07;2.97;;;;;;;15.60;79.10;100028.22;5016802;28;20026;-72
2022/08/01 02:31:05;;;;;;;6.93;3.20;;;;;;;15.63;79.14;100024.25;5016535;28;20043;-73
2022/08/01 02:33:36;;;;;;;4.00;3.13;;;;;;;15.65;79.08;100029.50;5033475;28;20028;-72
2022/08/01 02:36:03;;;;;;;3.55;2.80;;;;;;;15.64;78.90;100025.84;5016708;28;20026;-73
2022/08/01 02:38:31;;;;;;;3.78;3.30;;;;;;;15.63;78.75;100026.34;5033063;28;20041;-73
2022/08/01 02:41:00;;;;;;;4.85;3.38;;;;;;;15.63;78.97;100024.25;5016466;28;20030;-74
2022/08/01 02:43:28;;;;;;;4.28;3.63;;;;;;;15.63;78.67;100023.47;5032979;28;20028;-72
2022/08/01 02:45:56;;;;;;;3.60;3.25;;;;;;;15.61;78.82;100015.38;5016742;28;20040;-72
2022/08/01 02:48:23;;;;;;;5.43;3.60;;;;;;;15.62;78.71;100024.78;5016488;28;20026;-73
2022/08/01 02:50:49;;;;;;;3.75;3.15;;;;;;;15.60;78.67;100024.56;5016446;28;20032;-72
2022/08/01 02:53:18;;;;;;;7.85;3.85;;;;;;;15.56;78.63;100024.03;5016336;28;20131;-72
2022/08/01 02:55:44;;;;;;;3.58;3.15;;;;;;;15.52;78.82;100017.75;5032817;28;20032;-72
2022/08/01 02:58:10;;;;;;;4.47;3.45;;;;;;;15.48;78.99;100018.06;5016223;28;20471;-73
2022/08/01 03:00:36;;;;;;;3.58;3.28;;;;;;;15.45;79.22;100013.38;5032944;28;20075;-73
2022/08/01 03:03:03;;;;;;;9.73;3.83;;;;;;;15.44;79.33;100008.16;5032772;28;20021;-74
2022/08/01 03:05:30;;;;;;;4.93;3.80;;;;;;;15.42;79.38;100007.88;5032790;28;20121;-72
2022/08/01 03:07:56;;;;;;;6.20;3.17;;;;;;;15.41;79.38;100014.97;5032666;28;20029;-72
2022/08/01 03:10:23;;;;;;;6.63;3.50;;;;;;;15.44;79.36;100013.91;5032534;28;20108;-73
2022/08/01 03:12:49;;;;;;;4.88;3.50;;;;;;;15.44;79.54;100022.53;5033542;28;20064;-73
2022/08/01 03:15:15;;;;;;;5.38;3.95;;;;;;;15.45;79.80;100021.22;5032727;28;20060;-72
2022/08/01 03:17:41;;;;;;;4.95;3.53;;;;;;;15.46;80.01;100025.69;5015923;28;20029;-73
2022/08/01 03:20:08;;;;;;;6.38;4.05;;;;;;;15.46;79.99;100020.72;5031513;28;20029;-73
2022/08/01 03:22:48;;;;;;;5.78;4.05;;;;;;;15.50;80.09;100021.19;5015566;28;20017;-72
2022/08/01 03:25:15;;;;;;;4.35;3.75;;;;;;;15.50;80.04;100029.06;5032315;28;20017;-73
2022/08/01 03:27:52;;;;;;;5.28;3.70;;;;;;;15.53;80.01;100025.88;5032589;28;20109;-72
2022/08/01 03:30:18;;;;;;;4.22;3.83;;;;;;;15.58;80.01;100024.28;5033653;28;20065;-74
2022/08/01 03:32:45;;;;;;;4.68;4.22;;;;;;;15.62;79.85;100030.56;5033067;28;20041;-74
2022/08/01 03:35:13;;;;;;;6.05;3.63;;;;;;;15.65;79.80;100030.28;5032269;28;20033;-73
2022/08/01 03:37:45;;;;;;;5.03;3.75;;;;;;;15.70;79.65;100022.91;5015248;28;20056;-74
2022/08/01 03:40:25;;;;;;;5.65;3.50;;;;;;;15.77;79.63;100028.06;5015822;28;20029;-73
2022/08/01 03:42:58;;;;;;;4.00;3.25;;;;;;;15.85;79.32;100025.41;5032202;28;20026;-73
2022/08/01 03:45:34;;;;;;;5.00;3.45;;;;;;;15.92;79.18;100027.69;5032214;28;20049;-73
2022/08/01 03:48:03;;;;;;;6.60;3.92;;;;;;;15.97;78.79;100026.88;5031997;28;20450;-73
2022/08/01 03:50:33;;;;;;;3.83;3.35;;;;;;;16.03;78.71;100033.38;5015853;28;20037;-72
2022/08/01 03:53:02;;;;;;;5.65;3.63;;;;;;;16.11;78.38;100025.69;5016314;28;20374;-73
2022/08/01 03:55:30;;;;;;;4.70;3.78;;;;;;;16.20;78.27;100034.00;4999228;28;20034;-73
2022/08/01 03:58:00;;;;;;;4.15;3.13;;;;;;;16.33;78.04;100039.09;5015686;28;20392;-73
2022/08/01 04:00:26;;;;;;;4.03;3.33;;;;;;;16.44;77.41;100039.78;5033154;28;20364;-72
2022/08/01 04:02:53;;;;;;;4.65;3.22;;;;;;;16.55;77.17;100045.44;5031835;28;20033;-73
2022/08/01 04:05:25;;;;;;;3.92;3.20;;;;;;;16.63;76.68;100060.06;5031949;28;20040;-72
2022/08/01 04:07:55;;;;;;;;;;;;;;;16.69;76.71;100060.78;5033509;28;20022;-73
2022/08/01 04:10:22;;;;;;;4.50;3.75;;;;;;;16.72;76.38;100062.56;5033086;28;20262;-73
2022/08/01 04:12:52;;;;;;;7.95;3.80;;;;;;;16.80;76.10;100062.75;4999350;28;20037;-73
2022/08/01 04:15:23;;;;;;;4.88;3.70;;;;;;;16.85;75.92;100065.56;5015388;28;20120;-72
2022/08/01 04:17:51;;;;;;;5.03;3.97;;;;;;;16.87;75.73;100062.94;5032361;28;20029;-72
2022/08/01 04:20:17;;;;;;;11.35;5.90;;;;;;;16.91;75.46;100056.84;5033046;28;20029;-72
2022/08/01 04:22:43;;;;;;;7.65;4.43;;;;;;;16.96;75.27;100056.00;5015299;28;20025;-72
2022/08/01 04:25:17;;;;;;;4.88;4.43;;;;;;;17.03;74.94;100058.28;5031773;28;20033;-72
2022/08/01 04:28:00;;;;;;;9.27;4.85;;;;;;;17.08;75.32;100050.88;5031680;28;20113;-73
2022/08/01 04:30:29;;;;;;;5.07;4.50;;;;;;;17.10;75.00;100056.84;5032903;28;20021;-72
2022/08/01 04:32:59;;;;;;;4.97;4.47;;;;;;;17.14;74.91;100054.47;5033937;28;20060;-73
2022/08/01 04:35:34;;;;;;;7.28;5.25;;;;;;;17.16;74.50;100051.78;5019118;28;20051;-72
2022/08/01 04:38:01;;;;;;;5.65;4.03;;;;;;;17.16;74.88;100046.81;5036457;28;20120;-73
2022/08/01 04:40:28;;;;;;;6.70;4.50;;;;;;;17.16;74.53;100052.56;5035340;28;20029;-72
2022/08/01 04:42:54;;;;;;;6.07;4.45;;;;;;;17.17;74.88;100059.13;5019176;28;20597;-72
2022/08/01 04:45:21;;;;;;;7.00;4.47;;;;;;;17.17;74.85;100056.25;5035477;28;20037;-73
2022/08/01 04:47:49;;;;;;;6.30;4.88;;;;;;;17.21;74.72;100051.72;5036646;28;20071;-74
2022/08/01 04:50:15;;;;;;;6.28;4.50;;;;;;;17.25;74.51;100054.28;5035314;28;20088;-73
2022/08/01 04:52:41;;;;;;;10.38;5.25;;;;;;;17.25;74.73;100060.06;5018678;28;20030;-73
2022/08/01 04:55:08;;;;;;;6.53;5.35;;;;;;;17.26;75.04;100053.75;5036196;28;20056;-72
2022/08/01 04:57:44;;;;;;;9.25;4.95;;;;;;;17.31;75.17;100055.00;5035441;28;20036;-72
2022/08/01 05:00:11;;;;;;;6.60;5.38;;;;;;;17.30;75.33;100057.09;5036164;28;20474;-74
2022/08/01 05:02:38;;;;;;;6.82;5.25;;;;;;;17.36;75.58;100054.16;5018461;28;20049;-72
2022/08/01 05:05:10;;;;;;;7.95;5.50;;;;;;;17.40;75.20;100057.50;5036053;28;20071;-72
2022/08/01 05:07:36;;;;;;;;;;;;;;;17.42;75.80;100063.53;5037198;28;20034;-73
2022/08/01 05:10:06;;;;;;;7.53;5.85;;;;;;;17.41;76.01;100056.19;5036023;28;19913;-72
2022/08/01 05:12:34;;;;;;;6.90;5.45;;;;;;;17.44;76.23;100055.09;5035998;28;20478;-73
2022/08/01 05:15:01;;;;;;;6.70;6.00;;;;;;;17.44;76.39;100049.31;5035859;28;20030;-73
2022/08/01 05:17:28;;;;;;;6.95;5.90;;;;;;;17.49;76.42;100062.16;5035778;28;20033;-75
2022/08/01 05:19:53;;;;;;;9.02;5.85;;;;;;;17.55;76.50;100057.06;5035933;28;20061;-73
2022/08/01 05:22:22;;;;;;;6.65;5.50;;;;;;;17.62;76.20;100059.31;5035444;28;20061;-74
2022/08/01 05:24:47;;;;;;;10.15;6.80;;;;;;;17.70;76.37;100054.47;5034528;28;20048;-73
2022/08/01 05:27:13;;;;;;;7.57;6.40;;;;;;;17.78;76.01;100059.03;5017905;28;20449;-74
2022/08/01 05:29:41;;;;;;;8.43;7.00;;;;;;;17.87;75.88;100054.97;5043575;28;20075;-73
2022/08/01 05:32:06;;;;;;;11.13;6.70;;;;;;;17.90;76.24;100050.97;5051823;28;20028;-73
2022/08/01 05:34:37;;;;;;;10.15;7.00;;;;;;;17.98;76.07;100056.91;5045460;28;20020;-74
2022/08/01 05:37:04;;;;;;;7.28;6.57;;;;;;;18.06;76.01;100052.81;5050172;28;20016;-73
2022/08/01 05:39:30;;;;;;;8.98;6.72;;;;;;;18.12;75.70;100049.84;5055780;28;20033;-73
2022/08/01 05:41:57;;;;;;;7.65;6.95;;;;;;;18.17;76.23;100051.84;5052603;28;20041;-73
2022/08/01 05:44:23;;;;;;;8.10;6.63;;;;;;;18.18;75.48;100054.19;5053156;28;20049;-72
2022/08/01 05:46:48;;;;;;;11.10;7.10;;;;;;;18.24;76.04;100051.97;5052907;28;20098;-74
2022/08/01 05:49:16;;;;;;;8.10;6.85;;;;;;;18.30;75.65;100054.78;5054030;28;20420;-73
2022/08/01 05:51:41;;;;;;;7.32;6.63;;;;;;;18.38;75.90;100060.69;5055224;28;20029;-73
2022/08/01 05:54:08;;;;;;;20.25;8.95;;;;;;;18.49;75.68;100058.38;5055171;28;20051;-72
2022/08/01 05:56:35;;;;;;;17.95;7.80;;;;;;;18.56;75.50;100059.84;5053686;28;20115;-73
2022/08/01 05:59:00;;;;;;;15.60;6.53;;;;;;;18.56;74.96;100060.63;5053484;28;20048;-72
2022/08/01 06:01:25;;;;;;;13.00;7.03;;;;;;;18.59;75.21;100064.50;5055149;28;20024;-71
2022/08/01 06:03:54;;;;;;;11.60;6.68;;;;;;;18.63;75.02;100062.84;5055023;28;20033;-72
2022/08/01 06:06:21;;;;;;;10.48;6.32;;;;;;;18.69;75.04;100057.75;5053553;28;20029;-72
2022/08/01 06:08:47;;;;;;;18.70;7.60;;;;;;;18.76;75.28;100052.63;5037326;28;20045;-72
2022/08/01 06:11:13;;;;;;;10.93;7.78;;;;;;;18.85;75.28;100055.84;5053587;28;20456;-72
2022/08/01 06:13:39;;;;;;;7.60;6.28;;;;;;;18.99;75.47;100057.41;5053471;28;20115;-71
2022/08/01 06:16:04;;;;;;;9.25;6.03;;;;;;;19.20;75.46;100053.84;5054124;28;20075;-79
2022/08/01 06:18:31;;;;;;;7.55;6.55;;;;;;;19.38;74.53;100058.69;5054767;28;20037;-72
2022/08/01 06:20:58;;;;;;;7.90;5.93;;;;;;;19.57;73.91;100061.44;5054027;28;20037;-72
2022/08/01 06:23:24;;;;;;;7.30;6.30;;;;;;;19.74;73.65;100062.59;5053609;28;20037;-71
2022/08/01 06:25:54;;;;;;;5.90;5.30;;;;;;;19.90;72.93;100060.66;5054621;28;20033;-71
2022/08/01 06:28:20;;;;;;;11.43;7.05;;;;;;;20.07;72.49;100063.16;5053376;28;20044;-73
2022/08/01 06:30:46;;;;;;;8.18;6.53;;;;;;;20.25;72.05;100062.19;5053236;28;20122;-72
2022/08/01 06:33:12;;;;;;;13.82;6.15;;;;;;;20.44;71.64;100064.84;5053181;28;20025;-72
2022/08/01 06:35:40;;;;;;;12.90;6.18;;;;;;;20.64;71.15;100064.03;5053821;28;20121;-71
2022/08/01 06:38:06;;;;;;;12.65;6.20;;;;;;;20.86;70.98;100074.28;5052887;28;20048;-73
2022/08/01 06:40:31;;;;;;;12.73;5.18;;;;;;;21.06;70.20;100080.03;5053114;28;20403;-74
2022/08/01 06:42:57;;;;;;;13.55;5.55;;;;;;;21.27;69.19;100077.03;5052237;28;20454;-73
2022/08/01 06:45:26;;;;;;;8.63;5.97;;;;;;;21.49;69.09;100081.41;5054151;28;20056;-72
2022/08/01 06:47:53;;;;;;;10.60;6.03;;;;;;;21.68;68.26;100081.88;5054484;28;20032;-73
2022/08/01 06:50:19;;;;;;;9.20;6.13;;;;;;;21.84;67.38;100076.88;5054044;28;20036;-73
2022/08/01 06:52:45;;;;;;;9.43;5.07;;;;;;;21.99;67.43;100077.69;5054143;28;20048;-72
2022/08/01 06:55:13;;;;;;;7.45;4.93;;;;;;;22.17;67.15;100072.13;5036294;28;20458;-73
2022/08/01 06:57:51;;;;;;;14.52;6.10;;;;;;;22.40;66.59;100090.38;5052775;28;20426;-73
2022/08/01 07:00:37;;;;;;;31.30;8.07;;;;;;;22.59;66.03;100082.03;5054130;28;20044;-73
2022/08/01 07:03:03;;;;;;;31.95;8.95;;;;;;;22.68;65.05;100087.25;5053718;28;20168;-73
2022/08/01 07:05:30;;;;;;;17.50;5.90;;;;;;;22.86;64.38;100083.19;5052708;28;20036;-72
2022/08/01 07:07:56;;;;;;;8.45;3.85;;;;;;;23.11;63.33;100083.34;5052627;28;20103;-72
2022/08/01 07:10:24;;;;;;;7.18;3.53;;;;;;;23.57;61.79;100086.91;5047488;28;20223;-72
2022/08/01 07:12:50;;;;;;;8.93;3.50;;;;;;;24.16;60.18;100089.28;5053682;28;20033;-73
2022/08/01 07:15:15;;;;;;;4.75;3.47;;;;;;;24.64;56.28;100099.47;5054062;28;20055;-74
2022/08/01 07:17:43;;;;;;;4.10;2.40;;;;;;;25.20;55.11;100099.91;5052209;28;20071;-73
2022/08/01 07:20:12;;;;;;;3.65;2.55;;;;;;;25.63;52.97;100095.53;5035915;28;20048;-74
2022/08/01 07:22:38;;;;;;;3.60;2.70;;;;;;;26.18;51.25;100097.16;5035767;28;20028;-73
2022/08/01 07:25:06;;;;;;;5.20;2.70;;;;;;;27.03;48.82;100095.94;5053687;28;20106;-75
2022/08/01 07:27:34;;;;;;;7.22;3.03;;;;;;;27.80;47.12;100106.97;5053181;28;20074;-74
2022/08/01 07:30:08;;;;;;;2.55;2.35;;;;;;;27.96;44.74;100103.06;5019323;28;20036;-74
2022/08/01 07:32:34;;;;;;;3.15;2.60;;;;;;;27.79;44.91;100112.06;5053385;28;20024;-74
2022/08/01 07:35:02;;;;;;;4.03;3.08;;;;;;;27.46;45.40;100111.75;5053406;28;20520;-75
2022/08/01 07:37:29;;;;;;;4.85;2.70;;;;;;;27.27;46.23;100116.81;5034270;28;20397;-77
2022/08/01 07:39:55;;;;;;;5.75;2.42;;;;;;;27.11;46.71;100117.09;5052361;28;20466;-75
2022/08/01 07:42:22;;;;;;;3.58;2.50;;;;;;;26.99;46.76;100109.50;5052205;28;20045;-75
2022/08/01 07:44:47;;;;;;;8.65;2.58;;;;;;;26.96;46.67;100110.75;5051583;28;20064;-75
2022/08/01 07:47:15;;;;;;;5.97;2.83;;;;;;;27.01;46.77;100115.56;5034842;28;20109;-75
2022/08/01 07:49:41;;;;;;;3.05;2.72;;;;;;;27.09;46.53;100111.09;5051029;28;20039;-73
2022/08/01 07:52:21;;;;;;;3.85;2.67;;;;;;;26.91;45.89;100106.69;5033975;28;20049;-72
2022/08/01 07:54:56;;;;;;;4.82;2.67;;;;;;;26.81;45.75;100113.97;5053119;28;20029;-72
2022/08/01 07:57:23;;;;;;;3.08;2.70;;;;;;;26.80;45.42;100118.28;5052924;28;20040;-74
2022/08/01 07:59:50;;;;;;;4.35;2.92;;;;;;;26.69;44.68;100113.72;5035120;28;20477;-72
2022/08/01 08:02:15;;;;;;;3.50;2.70;;;;;;;26.46;45.73;100116.25;5034514;28;20041;-73
2022/08/01 08:04:45;;;;;;;5.28;2.67;;;;;;;26.65;45.63;100125.91;5050406;28;20051;-79
2022/08/01 08:07:12;;;;;;;6.72;2.90;;;;;;;26.99;44.70;100119.09;5053350;28;20044;-83
2022/08/01 08:09:38;;;;;;;3.63;2.40;;;;;;;27.15;44.00;100117.44;5055745;28;20033;-83
2022/08/01 08:12:04;;;;;;;3.72;2.95;;;;;;;27.78;43.56;100125.19;5057089;28;20040;-82
2022/08/01 08:14:29;;;;;;;3.17;2.33;;;;;;;28.62;42.01;100126.25;5055641;28;20056;-85
2022/08/01 08:16:54;;;;;;;2.80;2.40;;;;;;;29.08;40.57;100123.72;5055427;28;20474;-81
2022/08/01 08:19:20;;;;;;;3.55;2.40;;;;;;;29.30;39.75;100137.03;5056451;28;20037;-80
2022/08/01 08:21:47;;;;;;;2.53;2.30;;;;;;;29.37;39.84;100122.75;5055308;28;20446;-81
2022/08/01 08:24:19;;;;;;;4.35;2.40;;;;;;;29.47;40.08;100127.16;5056392;28;20029;-80
2022/08/01 08:26:47;;;;;;;3.97;2.63;;;;;;;29.54;39.80;100128.34;5038769;28;20033;-74
2022/08/01 08:29:13;;;;;;;2.65;2.45;;;;;;;29.57;40.24;100136.72;5055079;28;20098;-75
2022/08/01 08:31:40;;;;;;;2.92;2.63;;;;;;;29.51;40.79;100141.38;5055173;28;20037;-74
2022/08/01 08:34:07;;;;;;;2.97;2.63;;;;;;;29.55;40.33;100157.16;5037842;28;20355;-75
2022/08/01 08:36:34;;;;;;;4.45;2.47;;;;;;;29.64;40.29;100147.50;5021478;28;20037;-73
2022/08/01 08:39:01;;;;;;;6.90;3.15;;;;;;;29.66;39.60;100149.81;5021547;28;20057;-73
2022/08/01 08:41:31;;;;;;;3.72;2.58;;;;;;;29.84;40.29;100151.06;5054802;28;20063;-74
2022/08/01 08:43:58;;;;;;;2.55;2.33;;;;;;;30.12;39.19;100152.97;5056505;28;20025;-75
2022/08/01 08:46:32;;;;;;;4.85;2.83;;;;;;;30.21;38.63;100166.09;5053938;28;20057;-73
2022/08/01 08:49:02;;;;;;;4.28;2.70;;;;;;;29.96;37.90;100163.66;5038263;28;20040;-74
2022/08/01 08:51:28;;;;;;;6.00;3.03;;;;;;;29.51;39.25;100159.84;5054599;28;20032;-74
2022/08/01 08:53:57;;;;;;;3.67;2.47;;;;;;;29.15;39.79;100161.00;5054214;28;20105;-74
2022/08/01 08:56:24;;;;;;;3.47;2.63;;;;;;;28.86;40.58;100157.41;5052828;28;20147;-75
2022/08/01 08:58:50;;;;;;;3.85;3.40;;;;;;;28.62;41.40;100155.69;5034726;28;20227;-76
2022/08/01 09:01:17;;;;;;;2.97;2.70;;;;;;;28.33;42.24;100164.56;5051030;28;20063;-74
2022/08/01 09:03:43;;;;;;;4.93;3.15;;;;;;;28.22;42.69;100154.22;5034379;28;20436;-75
2022/08/01 09:06:08;;;;;;;11.15;4.32;;;;;;;28.07;41.94;100162.59;5034215;28;20025;-75
2022/08/01 09:08:33;;;;;;;3.00;2.45;;;;;;;27.83;42.97;100162.28;5050961;28;20033;-74
2022/08/01 09:10:59;;;;;;;2.85;2.60;;;;;;;27.57;43.04;100164.00;5054327;28;20468;-76
2022/08/01 09:13:24;;;;;;;5.40;3.20;;;;;;;27.46;43.94;100161.66;5054759;28;20020;-75
2022/08/01 09:15:53;;;;;;;6.55;3.10;;;;;;;27.40;45.70;100160.44;5055397;28;20056;-74
2022/08/01 09:18:35;;;;;;;2.88;2.60;;;;;;;27.34;44.96;100160.72;5052042;28;20029;-74
2022/08/01 09:21:18;;;;;;;3.35;3.00;;;;;;;27.40;44.85;100157.50;5053626;28;20025;-75
2022/08/01 09:23:45;;;;;;;3.75;2.85;;;;;;;27.76;43.89;100156.56;5035392;28;20025;-74
2022/08/01 09:26:17;;;;;;;3.42;2.63;;;;;;;28.10;43.29;100158.41;5052263;28;20028;-73
2022/08/01 09:28:43;;;;;;;4.70;2.97;;;;;;;28.32;41.70;100157.91;5053268;28;20115;-75
2022/08/01 09:31:19;;;;;;;4.82;3.20;;;;;;;28.45;41.45;100160.34;5053557;28;20032;-76
2022/08/01 09:33:54;;;;;;;8.75;3.97;;;;;;;28.61;40.59;100166.66;5054725;28;20148;-76
2022/08/01 09:36:21;;;;;;;4.93;2.80;;;;;;;28.84;40.96;100166.09;5056013;28;20025;-76
2022/08/01 09:38:47;;;;;;;3.53;2.85;;;;;;;29.13;40.35;100154.22;5037516;28;20131;-75
2022/08/01 09:41:12;;;;;;;3.40;3.10;;;;;;;29.40;40.50;100160.53;5055437;28;20126;-75
2022/08/01 09:43:38;;;;;;;7.70;3.60;;;;;;;29.58;40.36;100155.91;5037383;28;20025;-74
2022/08/01 09:46:09;;;;;;;5.78;3.40;;;;;;;29.69;40.34;100155.22;5054197;28;20025;-75
2022/08/01 09:48:36;;;;;;;9.02;3.17;;;;;;;30.02;40.59;100152.25;5055105;28;20024;-74
2022/08/01 09:51:02;;;;;;;4.97;3.00;;;;;;;30.43;39.18;100143.94;5053987;28;20033;-75
2022/08/01 09:53:40;;;;;;;3.00;2.60;;;;;;;30.77;38.61;100156.44;5055388;28;20032;-75
2022/08/01 09:56:12;;;;;;;6.60;2.80;;;;;;;31.03;38.25;100148.50;5055071;28;20029;-74
2022/08/01 09:58:57;;;;;;;3.78;2.67;;;;;;;31.10;37.86;100153.38;5055158;28;20028;-74
2022/08/01 10:01:23;;;;;;;4.10;2.83;;;;;;;30.88;38.08;100158.63;5055445;28;20112;-74
2022/08/01 10:04:21;;;;;;;4.25;2.45;;;;;;;30.91;38.26;100155.16;5053835;28;20104;-76
2022/08/01 10:06:55;;;;;;;10.23;4.57;;;;;;;30.81;38.33;100151.56;5053329;28;20147;-74
2022/08/01 10:09:33;;;;;;;4.30;2.67;;;;;;;30.85;38.52;100154.81;5037770;28;20150;-74
2022/08/01 10:11:59;;;;;;;6.05;2.70;;;;;;;30.95;38.79;100148.78;5053575;28;20021;-75
2022/08/01 10:14:26;;;;;;;22.45;7.30;;;;;;;31.10;38.36;100144.53;5053577;28;20029;-74
2022/08/01 10:16:53;;;;;;;6.18;2.85;;;;;;;31.23;37.92;100140.94;5036807;28;20120;-75
2022/08/01 10:19:21;;;;;;;5.82;2.72;;;;;;;31.37;38.81;100141.78;5053455;28;20044;-74
2022/08/01 10:21:49;;;;;;;8.30;3.08;;;;;;;31.36;37.35;100143.97;5054488;28;20362;-74
2022/08/01 10:24:15;;;;;;;3.17;2.55;;;;;;;31.49;37.87;100142.53;5036922;28;20033;-74
2022/08/01 10:26:40;;;;;;;4.32;2.90;;;;;;;31.68;38.35;100130.44;5036583;28;20120;-75
2022/08/01 10:29:06;;;;;;;3.42;2.40;;;;;;;31.75;36.48;100126.41;5053314;28;20029;-75
2022/08/01 10:31:32;;;;;;;2.42;2.22;;;;;;;31.62;36.74;100141.84;5053904;28;20033;-75
2022/08/01 10:33:59;;;;;;;8.40;2.65;;;;;;;31.35;36.46;100145.38;5036419;28;20111;-75
2022/08/01 10:36:25;;;;;;;11.02;3.17;;;;;;;31.13;37.36;100143.22;5036380;28;20528;-75
2022/08/01 10:38:51;;;;;;;6.97;2.72;;;;;;;31.02;37.47;100144.78;5052716;28;20049;-74
2022/08/01 10:41:18;;;;;;;3.67;2.53;;;;;;;30.89;37.62;100137.34;5052976;28;20052;-75
2022/08/01 10:43:44;;;;;;;7.95;2.40;;;;;;;31.08;38.40;100145.16;5052760;28;20029;-74
2022/08/01 10:46:09;;;;;;;3.03;2.22;;;;;;;31.21;37.28;100138.59;5036386;28;20025;-74
2022/08/01 10:48:43;;;;;;;17.55;4.22;;;;;;;31.18;38.18;100142.09;5036203;28;20036;-74
2022/08/01 10:51:09;;;;;;;13.73;4.03;;;;;;;31.31;38.84;100132.56;5052965;28;20539;-74
2022/08/01 10:53:34;;;;;;;3.10;2.40;;;;;;;31.33;37.81;100135.63;5054378;28;20100;-74
2022/08/01 10:56:01;;;;;;;4.22;3.22;;;;;;;31.28;38.03;100131.66;5054077;28;20031;-74
2022/08/01 10:58:32;;;;;;;3.40;2.95;;;;;;;31.27;38.02;100138.22;5052569;28;20025;-75
2022/08/01 11:01:20;;;;;;;3.35;2.85;;;;;;;31.16;37.68;100139.00;5052989;28;20036;-75
2022/08/01 11:03:57;;;;;;;6.70;3.80;;;;;;;31.12;37.84;100138.72;5053726;28;20115;-75
2022/08/01 11:06:49;;;;;;;8.43;3.28;;;;;;;31.27;39.00;100132.31;5052531;28;20021;-76
2022/08/01 11:09:20;;;;;;;5.15;2.95;;;;;;;31.29;37.14;100138.34;5052693;28;20381;-75
2022/08/01 11:12:15;;;;;;;4.78;2.85;;;;;;;31.22;37.46;100134.25;5053700;28;20025;-75
2022/08/01 11:15:04;;;;;;;2.72;2.53;;;;;;;31.24;37.42;100127.69;5054001;28;20074;-75
2022/08/01 11:17:37;;;;;;;3.28;2.97;;;;;;;31.23;38.37;100132.06;5043434;28;20037;-77
2022/08/01 11:20:10;;;;;;;3.15;2.95;;;;;;;31.21;37.95;100126.78;5053839;28;20051;-75
2022/08/01 11:22:57;;;;;;;10.13;3.75;;;;;;;31.00;37.09;100132.84;5053878;28;20378;-75
2022/08/01 11:25:23;;;;;;;8.10;3.60;;;;;;;30.80;38.08;100131.56;5053787;28;20033;-74
2022/08/01 11:27:48;;;;;;;10.13;4.03;;;;;;;30.60;38.40;100128.06;5053488;28;20055;-74
2022/08/01 11:30:14;;;;;;;4.55;3.25;;;;;;;30.44;38.62;100132.91;5053461;28;20083;-74
2022/08/01 11:32:46;;;;;;;6.40;3.10;;;;;;;30.41;39.02;100131.25;5053379;28;20040;-75